Time;durP1;ratioP1;P1;durP2;ratioP2;P2;SDS_P1;SDS_P2;PMS_P1;PMS_P2;Temp;Humidity;BMP_temperature;BMP_pressure;BME280_temperature;BME280_humidity;BME280_pressure;Samples;Min_cycle;Max_cycle;Signal;HPM_P1;HPM_P2
2021/08/19 00:00:27;;;;;;;3.63;1.75;;;;;;;;;;5039442;28;20028;-74
2021/08/19 00:02:53;;;;;;;3.78;1.90;;;;;;;;;;5031727;28;20077;-74
2021/08/19 00:05:19;;;;;;;6.80;2.00;;;;;;;;;;5042077;28;20065;-74
2021/08/19 00:07:46;;;;;;;3.90;2.03;;;;;;;;;;5040799;28;20029;-74
2021/08/19 00:10:12;;;;;;;3.90;2.00;;;;;;;;;;5043168;28;20020;-74
2021/08/19 00:12:38;;;;;;;4.88;2.00;;;;;;;;;;5043435;28;20033;-74
2021/08/19 00:15:05;;;;;;;4.60;2.40;;;;;;;;;;5045098;28;20108;-74
2021/08/19 00:17:32;;;;;;;4.50;2.28;;;;;;;;;;5050566;28;20029;-74
2021/08/19 00:19:58;;;;;;;3.35;1.67;;;;;;;;;;5053052;28;20028;-74
2021/08/19 00:22:24;;;;;;;3.35;1.80;;;;;;;;;;5053283;28;20017;-74
2021/08/19 00:24:51;;;;;;;5.78;2.30;;;;;;;;;;5053104;28;20025;-73
2021/08/19 00:27:17;;;;;;;4.68;2.05;;;;;;;;;;5052888;28;20020;-74
2021/08/19 00:29:43;;;;;;;4.57;2.15;;;;;;;;;;5035028;28;20028;-74
2021/08/19 00:32:09;;;;;;;4.03;2.00;;;;;;;;;;5034950;28;20024;-73
2021/08/19 00:34:35;;;;;;;4.25;2.08;;;;;;;;;;5052984;28;20048;-74
2021/08/19 00:37:01;;;;;;;3.42;1.60;;;;;;;;;;5034800;28;20028;-74
2021/08/19 00:39:27;;;;;;;3.70;1.90;;;;;;;;;;5052716;28;20052;-75
2021/08/19 00:41:53;;;;;;;3.92;2.20;;;;;;;;;;5052705;28;20021;-74
2021/08/19 00:44:19;;;;;;;4.53;1.98;;;;;;;;;;5052906;28;20055;-74
2021/08/19 00:46:46;;;;;;;4.60;2.22;;;;;;;;;;5049010;28;20052;-74
2021/08/19 00:49:12;;;;;;;5.20;1.83;;;;;;;;;;5052726;28;20423;-74
2021/08/19 00:51:42;;;;;;;3.72;1.83;;;;;;;;;;5034819;28;20388;-73
2021/08/19 00:54:09;;;;;;;3.85;1.77;;;;;;;;;;5034548;28;20052;-74
2021/08/19 00:56:36;;;;;;;3.60;1.90;;;;;;;;;;5052448;28;20028;-74
2021/08/19 00:59:03;;;;;;;4.35;2.03;;;;;;;;;;5052447;28;20021;-74
2021/08/19 01:01:29;;;;;;;3.35;1.85;;;;;;;;;;5052564;28;20025;-74
2021/08/19 01:03:56;;;;;;;4.10;1.70;;;;;;;;;;5052571;28;20591;-74
2021/08/19 01:06:22;;;;;;;3.42;1.80;;;;;;;;;;5052507;28;20064;-74
2021/08/19 01:08:48;;;;;;;3.70;2.13;;;;;;;;;;5034480;28;20031;-74
2021/08/19 01:11:15;;;;;;;3.65;2.00;;;;;;;;;;5052514;28;20024;-74
2021/08/19 01:13:41;;;;;;;4.72;2.03;;;;;;;;;;5034499;28;20040;-73
2021/08/19 01:16:07;;;;;;;4.13;2.25;;;;;;;;;;5052324;28;20017;-74
2021/08/19 01:18:53;;;;;;;5.50;1.65;;;;;;;;;;5052343;28;20032;-74
2021/08/19 01:21:19;;;;;;;4.55;2.08;;;;;;;;;;5052191;28;20624;-74
2021/08/19 01:23:45;;;;;;;4.35;1.73;;;;;;;;;;5052311;28;20680;-74
2021/08/19 01:26:15;;;;;;;5.00;2.15;;;;;;;;;;5052063;28;20024;-74
2021/08/19 01:28:42;;;;;;;4.68;2.00;;;;;;;;;;5052329;28;20017;-75
2021/08/19 01:31:12;;;;;;;5.40;2.10;;;;;;;;;;5052214;28;20036;-74
2021/08/19 01:33:41;;;;;;;5.78;2.05;;;;;;;;;;5052171;28;20036;-74
2021/08/19 01:36:07;;;;;;;3.75;1.75;;;;;;;;;;5034182;28;20021;-74
2021/08/19 01:38:34;;;;;;;5.18;2.13;;;;;;;;;;5051851;28;20029;-74
2021/08/19 01:41:01;;;;;;;4.57;2.30;;;;;;;;;;5031589;28;20036;-75
2021/08/19 01:43:28;;;;;;;4.05;1.75;;;;;;;;;;5034063;28;20040;-74
2021/08/19 01:46:03;;;;;;;5.65;2.42;;;;;;;;;;5051935;28;20021;-73
2021/08/19 01:48:30;;;;;;;3.40;1.83;;;;;;;;;;5034214;28;20472;-74
2021/08/19 01:50:56;;;;;;;5.22;1.98;;;;;;;;;;5033998;28;20388;-74
2021/08/19 01:53:23;;;;;;;4.57;2.05;;;;;;;;;;5034495;28;20037;-74
2021/08/19 01:55:50;;;;;;;5.50;2.10;;;;;;;;;;5055963;28;20112;-74
2021/08/19 01:58:17;;;;;;;4.45;1.95;;;;;;;;;;5056000;28;20025;-74
2021/08/19 02:00:43;;;;;;;5.20;2.50;;;;;;;;;;5055895;28;20567;-74
2021/08/19 02:03:09;;;;;;;4.20;2.20;;;;;;;;;;5055917;28;20029;-74
2021/08/19 02:05:38;;;;;;;3.72;1.92;;;;;;;;;;5037901;28;20025;-74
2021/08/19 02:08:05;;;;;;;4.05;2.20;;;;;;;;;;5055892;28;20021;-74
2021/08/19 02:10:31;;;;;;;4.45;2.20;;;;;;;;;;5055734;28;20096;-74
2021/08/19 02:12:57;;;;;;;4.68;1.95;;;;;;;;;;5055481;28;20064;-74
2021/08/19 02:15:23;;;;;;;4.68;2.20;;;;;;;;;;5055502;28;20025;-74
2021/08/19 02:17:49;;;;;;;4.80;2.20;;;;;;;;;;5055479;28;20163;-74
2021/08/19 02:20:15;;;;;;;5.10;2.30;;;;;;;;;;5055568;28;20024;-74
2021/08/19 02:22:41;;;;;;;4.22;2.30;;;;;;;;;;5055759;28;20591;-74
2021/08/19 02:25:07;;;;;;;4.93;2.50;;;;;;;;;;5055364;28;20170;-74
2021/08/19 02:27:33;;;;;;;4.38;2.20;;;;;;;;;;5055573;28;20029;-74
2021/08/19 02:29:59;;;;;;;4.03;2.30;;;;;;;;;;5054451;28;20052;-74
2021/08/19 02:32:26;;;;;;;4.78;2.47;;;;;;;;;;5052959;28;20025;-74
2021/08/19 02:34:52;;;;;;;7.78;2.45;;;;;;;;;;5054232;28;20040;-74
2021/08/19 02:37:20;;;;;;;5.47;2.60;;;;;;;;;;5055199;28;20025;-74
2021/08/19 02:39:46;;;;;;;4.50;2.55;;;;;;;;;;5037172;28;20017;-74
2021/08/19 02:42:12;;;;;;;4.85;2.15;;;;;;;;;;5037225;28;20021;-74
2021/08/19 02:44:38;;;;;;;4.85;2.60;;;;;;;;;;5037161;28;20033;-74
2021/08/19 02:47:06;;;;;;;4.47;2.40;;;;;;;;;;5055072;28;20021;-74
2021/08/19 02:49:32;;;;;;;5.05;2.70;;;;;;;;;;5054871;28;20090;-74
2021/08/19 02:51:58;;;;;;;7.75;2.65;;;;;;;;;;5054939;28;20013;-74
2021/08/19 02:54:24;;;;;;;4.40;2.30;;;;;;;;;;5054709;28;20041;-74
2021/08/19 02:56:50;;;;;;;5.82;2.70;;;;;;;;;;5054647;28;20028;-74
2021/08/19 02:59:16;;;;;;;5.40;2.72;;;;;;;;;;5036658;28;20021;-74
2021/08/19 03:01:42;;;;;;;4.55;2.35;;;;;;;;;;5054806;28;20070;-74
2021/08/19 03:04:08;;;;;;;6.15;3.17;;;;;;;;;;5054536;28;20031;-74
2021/08/19 03:06:34;;;;;;;5.20;2.70;;;;;;;;;;5054707;28;20110;-74
2021/08/19 03:09:00;;;;;;;5.72;2.80;;;;;;;;;;5054827;28;20025;-74
2021/08/19 03:11:26;;;;;;;5.07;2.22;;;;;;;;;;5036748;28;20488;-74
2021/08/19 03:13:53;;;;;;;5.38;2.53;;;;;;;;;;5036724;28;20451;-74
2021/08/19 03:16:19;;;;;;;5.07;2.58;;;;;;;;;;5054254;28;20024;-74
2021/08/19 03:18:45;;;;;;;4.72;2.60;;;;;;;;;;5054356;28;20025;-74
2021/08/19 03:21:11;;;;;;;4.85;2.13;;;;;;;;;;5036420;28;20021;-74
2021/08/19 03:23:37;;;;;;;6.78;3.00;;;;;;;;;;5054347;28;20056;-74
2021/08/19 03:26:05;;;;;;;4.45;2.42;;;;;;;;;;5054193;28;20071;-74
2021/08/19 03:28:32;;;;;;;4.63;2.20;;;;;;;;;;5054463;28;20029;-74
2021/08/19 03:30:58;;;;;;;4.20;2.38;;;;;;;;;;5036421;28;20056;-73
2021/08/19 03:33:24;;;;;;;4.68;2.25;;;;;;;;;;5054299;28;20086;-74
2021/08/19 03:35:50;;;;;;;7.38;2.78;;;;;;;;;;5054101;28;20028;-74
2021/08/19 03:38:17;;;;;;;4.70;2.60;;;;;;;;;;5053837;28;20083;-74
2021/08/19 03:40:43;;;;;;;4.93;2.50;;;;;;;;;;5036035;28;20025;-74
2021/08/19 03:43:10;;;;;;;6.57;3.05;;;;;;;;;;5036275;28;20017;-74
2021/08/19 03:45:36;;;;;;;5.07;2.40;;;;;;;;;;5053968;28;20083;-74
2021/08/19 03:48:02;;;;;;;4.72;2.45;;;;;;;;;;5053821;28;20095;-74
2021/08/19 03:50:29;;;;;;;5.13;2.65;;;;;;;;;;5053771;28;20031;-74
2021/08/19 03:52:55;;;;;;;4.93;2.50;;;;;;;;;;5035644;28;20399;-74
2021/08/19 03:55:21;;;;;;;4.47;2.63;;;;;;;;;;5035579;28;20699;-74
2021/08/19 03:57:47;;;;;;;4.97;2.67;;;;;;;;;;5035803;28;20305;-74
2021/08/19 04:00:14;;;;;;;5.53;2.90;;;;;;;;;;5053621;28;20043;-74
2021/08/19 04:02:40;;;;;;;5.55;2.40;;;;;;;;;;5053800;28;20017;-74
2021/08/19 04:05:06;;;;;;;5.75;2.70;;;;;;;;;;5053687;28;20071;-74
2021/08/19 04:07:32;;;;;;;5.80;2.67;;;;;;;;;;5053418;28;20025;-74
2021/08/19 04:09:58;;;;;;;5.20;2.90;;;;;;;;;;5053191;28;20032;-74
2021/08/19 04:12:24;;;;;;;5.95;3.40;;;;;;;;;;5035047;28;20021;-74
2021/08/19 04:14:50;;;;;;;4.85;2.50;;;;;;;;;;5035146;28;20377;-74
2021/08/19 04:17:17;;;;;;;5.57;2.60;;;;;;;;;;5034828;28;20465;-74
2021/08/19 04:19:43;;;;;;;6.13;2.85;;;;;;;;;;5035308;28;20032;-74
2021/08/19 04:22:09;;;;;;;4.75;2.63;;;;;;;;;;5053226;28;20017;-74
2021/08/19 04:24:35;;;;;;;5.90;2.78;;;;;;;;;;5053202;28;20044;-73
2021/08/19 04:27:01;;;;;;;5.70;2.80;;;;;;;;;;5053045;28;20107;-74
2021/08/19 04:29:27;;;;;;;4.28;2.25;;;;;;;;;;5035148;28;20024;-74
2021/08/19 04:31:53;;;;;;;5.22;2.65;;;;;;;;;;5052887;28;20096;-74
2021/08/19 04:34:19;;;;;;;5.25;2.60;;;;;;;;;;5048994;28;20040;-74
2021/08/19 04:36:45;;;;;;;6.03;2.42;;;;;;;;;;5053093;28;20021;-74
2021/08/19 04:39:11;;;;;;;4.93;2.65;;;;;;;;;;5053199;28;20044;-74
2021/08/19 04:41:37;;;;;;;8.65;2.88;;;;;;;;;;5034996;28;20032;-73
2021/08/19 04:44:04;;;;;;;5.20;2.50;;;;;;;;;;5034878;28;20121;-74
2021/08/19 04:46:30;;;;;;;6.65;3.30;;;;;;;;;;5052724;28;20365;-75
2021/08/19 04:48:59;;;;;;;5.40;3.03;;;;;;;;;;5052847;28;20025;-74
2021/08/19 04:51:25;;;;;;;7.18;3.33;;;;;;;;;;5034841;28;20075;-74
2021/08/19 04:53:51;;;;;;;7.13;3.00;;;;;;;;;;5051967;28;20044;-74
2021/08/19 04:56:17;;;;;;;7.65;3.28;;;;;;;;;;5034473;28;20095;-74
2021/08/19 04:58:43;;;;;;;5.72;3.38;;;;;;;;;;5052631;28;20093;-74
2021/08/19 05:01:09;;;;;;;5.35;3.03;;;;;;;;;;5052509;28;20021;-74
2021/08/19 05:03:35;;;;;;;6.00;3.15;;;;;;;;;;5052295;28;20021;-74
2021/08/19 05:06:01;;;;;;;5.22;2.88;;;;;;;;;;5034248;28;20024;-74
2021/08/19 05:08:27;;;;;;;9.90;3.63;;;;;;;;;;5052436;28;20038;-74
2021/08/19 05:10:53;;;;;;;6.13;3.30;;;;;;;;;;5052341;28;20029;-74
2021/08/19 05:13:20;;;;;;;6.32;3.85;;;;;;;;;;5052333;28;20112;-74
2021/08/19 05:15:46;;;;;;;6.22;3.80;;;;;;;;;;5052625;28;20109;-74
2021/08/19 05:18:12;;;;;;;6.55;3.42;;;;;;;;;;5034452;28;20029;-73
2021/08/19 05:20:38;;;;;;;7.40;3.80;;;;;;;;;;5052293;28;20025;-74
2021/08/19 05:23:04;;;;;;;6.80;3.28;;;;;;;;;;5052179;28;20021;-73
2021/08/19 05:25:30;;;;;;;7.30;3.63;;;;;;;;;;5051984;28;20063;-74
2021/08/19 05:27:56;;;;;;;8.55;3.40;;;;;;;;;;5034322;28;20021;-73
2021/08/19 05:30:22;;;;;;;6.93;3.65;;;;;;;;;;5052024;28;20380;-74
2021/08/19 05:32:48;;;;;;;6.60;3.83;;;;;;;;;;5033896;28;20495;-74
2021/08/19 05:35:14;;;;;;;8.82;3.47;;;;;;;;;;5051910;28;20537;-74
2021/08/19 05:37:41;;;;;;;7.43;3.97;;;;;;;;;;5051863;28;20070;-74
2021/08/19 05:40:07;;;;;;;7.13;3.70;;;;;;;;;;5033977;28;20025;-74
2021/08/19 05:42:33;;;;;;;7.35;3.85;;;;;;;;;;5051876;28;20028;-74
2021/08/19 05:44:59;;;;;;;8.98;4.25;;;;;;;;;;5034168;28;20600;-74
2021/08/19 05:47:25;;;;;;;7.30;3.75;;;;;;;;;;5052039;28;20583;-75
2021/08/19 05:49:51;;;;;;;7.30;3.78;;;;;;;;;;5051769;28;20047;-74
2021/08/19 05:52:18;;;;;;;8.60;3.85;;;;;;;;;;5051791;28;20029;-73
2021/08/19 05:54:44;;;;;;;8.20;4.63;;;;;;;;;;5051621;28;20045;-73
2021/08/19 05:57:12;;;;;;;6.85;3.92;;;;;;;;;;5033740;28;20013;-73
2021/08/19 05:59:38;;;;;;;7.75;4.22;;;;;;;;;;5033814;28;20021;-73
2021/08/19 06:02:04;;;;;;;7.45;4.25;;;;;;;;;;5033846;28;20075;-73
2021/08/19 06:04:30;;;;;;;8.15;4.13;;;;;;;;;;5033756;28;20024;-73
2021/08/19 06:06:56;;;;;;;8.85;4.65;;;;;;;;;;5033937;28;20017;-73
2021/08/19 06:09:22;;;;;;;7.78;4.40;;;;;;;;;;5051846;28;20028;-73
2021/08/19 06:11:48;;;;;;;6.75;3.67;;;;;;;;;;5051754;28;20098;-74
2021/08/19 06:14:14;;;;;;;8.43;4.35;;;;;;;;;;5051683;28;20076;-73
2021/08/19 06:16:40;;;;;;;8.93;4.35;;;;;;;;;;5051626;28;20029;-73
2021/08/19 06:19:06;;;;;;;8.93;4.65;;;;;;;;;;5033973;28;20029;-73
2021/08/19 06:21:33;;;;;;;7.95;4.10;;;;;;;;;;5033567;28;20059;-73
2021/08/19 06:23:59;;;;;;;6.85;3.88;;;;;;;;;;5051160;28;20127;-73
2021/08/19 06:26:26;;;;;;;8.02;4.15;;;;;;;;;;5051415;28;20025;-74
2021/08/19 06:28:52;;;;;;;7.30;4.03;;;;;;;;;;5051371;28;20018;-74
2021/08/19 06:31:18;;;;;;;7.50;4.10;;;;;;;;;;5044152;28;20068;-74
2021/08/19 06:33:45;;;;;;;8.02;4.05;;;;;;;;;;5058845;28;20036;-74
2021/08/19 06:36:12;;;;;;;5.97;3.60;;;;;;;;;;5071016;28;20145;-73
2021/08/19 06:38:38;;;;;;;9.35;4.35;;;;;;;;;;5053430;28;20067;-73
2021/08/19 06:41:04;;;;;;;7.68;3.80;;;;;;;;;;5074383;28;20012;-73
2021/08/19 06:43:30;;;;;;;7.00;3.90;;;;;;;;;;5056923;28;20486;-74
2021/08/19 06:45:56;;;;;;;6.78;4.18;;;;;;;;;;5074619;28;20024;-73
2021/08/19 06:48:22;;;;;;;6.80;3.75;;;;;;;;;;5074278;28;20028;-73
2021/08/19 06:50:48;;;;;;;6.75;3.83;;;;;;;;;;5056575;28;20355;-73
2021/08/19 06:53:14;;;;;;;6.25;3.72;;;;;;;;;;5074504;28;20064;-74
2021/08/19 06:55:40;;;;;;;8.65;4.10;;;;;;;;;;5074345;28;20377;-73
2021/08/19 06:58:07;;;;;;;6.75;3.72;;;;;;;;;;5074448;28;20045;-74
2021/08/19 07:00:33;;;;;;;6.22;3.72;;;;;;;;;;5056747;28;20025;-73
2021/08/19 07:02:59;;;;;;;5.68;3.10;;;;;;;;;;5074714;28;20027;-74
2021/08/19 07:05:25;;;;;;;6.57;3.60;;;;;;;;;;5056378;28;20027;-73
2021/08/19 07:07:57;;;;;;;7.43;3.47;;;;;;;;;;5074420;28;20029;-74
2021/08/19 07:10:23;;;;;;;6.38;3.25;;;;;;;;;;5056845;28;20417;-73
2021/08/19 07:12:49;;;;;;;6.57;3.53;;;;;;;;;;5074392;28;20104;-74
2021/08/19 07:15:16;;;;;;;7.10;3.20;;;;;;;;;;5074306;28;20044;-75
2021/08/19 07:17:42;;;;;;;5.47;3.00;;;;;;;;;;5074299;28;20024;-73
2021/08/19 07:20:08;;;;;;;7.20;3.63;;;;;;;;;;5073972;28;20017;-73
2021/08/19 07:22:34;;;;;;;6.03;3.28;;;;;;;;;;5056092;28;20362;-74
2021/08/19 07:25:00;;;;;;;7.53;3.40;;;;;;;;;;5056020;28;20361;-74
2021/08/19 07:27:26;;;;;;;6.28;3.20;;;;;;;;;;5074130;28;20035;-74
2021/08/19 07:29:52;;;;;;;7.38;3.35;;;;;;;;;;5055971;28;20027;-73
2021/08/19 07:32:20;;;;;;;5.78;3.13;;;;;;;;;;5037036;28;20021;-73
2021/08/19 07:34:47;;;;;;;4.60;2.63;;;;;;;;;;5053946;28;20024;-73
2021/08/19 07:37:13;;;;;;;5.97;3.17;;;;;;;;;;5036152;28;20021;-73
2021/08/19 07:39:39;;;;;;;9.77;2.95;;;;;;;;;;5054131;28;20079;-73
2021/08/19 07:42:05;;;;;;;3.80;2.30;;;;;;;;;;5053802;28;20496;-73
2021/08/19 07:44:31;;;;;;;6.18;3.20;;;;;;;;;;5053763;28;20021;-73
2021/08/19 07:46:57;;;;;;;4.40;2.38;;;;;;;;;;5053952;28;20031;-74
2021/08/19 07:49:23;;;;;;;5.00;2.80;;;;;;;;;;5035860;28;20117;-73
2021/08/19 07:51:49;;;;;;;4.78;2.63;;;;;;;;;;5034933;28;20414;-73
2021/08/19 07:54:17;;;;;;;4.53;2.30;;;;;;;;;;5035492;28;20381;-74
2021/08/19 07:56:43;;;;;;;6.35;2.85;;;;;;;;;;5053848;28;20026;-73
2021/08/19 07:59:10;;;;;;;4.57;2.42;;;;;;;;;;5053751;28;20036;-73
2021/08/19 08:01:36;;;;;;;4.97;2.63;;;;;;;;;;5035950;28;20059;-73
2021/08/19 08:04:03;;;;;;;4.40;2.30;;;;;;;;;;5053584;28;20056;-74
2021/08/19 08:06:29;;;;;;;5.13;2.28;;;;;;;;;;5053403;28;20013;-73
2021/08/19 08:08:55;;;;;;;4.60;2.20;;;;;;;;;;5035503;28;20047;-74
2021/08/19 08:11:22;;;;;;;4.53;2.10;;;;;;;;;;5035533;28;20024;-74
2021/08/19 08:13:48;;;;;;;4.72;2.30;;;;;;;;;;5053122;28;20040;-74
2021/08/19 08:16:14;;;;;;;4.15;2.03;;;;;;;;;;5035223;28;20027;-74
2021/08/19 08:18:40;;;;;;;4.60;2.05;;;;;;;;;;5053285;28;20488;-74
2021/08/19 08:21:06;;;;;;;3.60;1.85;;;;;;;;;;5053361;28;20029;-73
2021/08/19 08:23:35;;;;;;;4.07;2.20;;;;;;;;;;5053136;28;20032;-73
2021/08/19 08:26:01;;;;;;;4.80;2.13;;;;;;;;;;5034969;28;20468;-73
2021/08/19 08:28:30;;;;;;;4.00;1.90;;;;;;;;;;5053236;28;20108;-73
2021/08/19 08:30:56;;;;;;;4.53;2.30;;;;;;;;;;5053046;28;20100;-74
2021/08/19 08:33:23;;;;;;;2.97;1.65;;;;;;;;;;5052927;28;20120;-73
2021/08/19 08:35:50;;;;;;;4.45;1.90;;;;;;;;;;5052989;28;20027;-73
2021/08/19 08:38:18;;;;;;;4.57;2.08;;;;;;;;;;5053047;28;20025;-74
2021/08/19 08:40:48;;;;;;;3.53;1.90;;;;;;;;;;5052842;28;20025;-74
2021/08/19 08:43:16;;;;;;;3.05;1.83;;;;;;;;;;5052808;28;20035;-74
2021/08/19 08:45:42;;;;;;;4.07;2.10;;;;;;;;;;5034566;28;20450;-73
2021/08/19 08:48:13;;;;;;;3.90;1.92;;;;;;;;;;5034736;28;20064;-73
2021/08/19 08:50:42;;;;;;;3.90;2.00;;;;;;;;;;5052688;28;20079;-73
2021/08/19 08:53:09;;;;;;;4.00;1.88;;;;;;;;;;5052664;28;20078;-74
2021/08/19 08:55:36;;;;;;;4.00;2.33;;;;;;;;;;5052452;28;20102;-74
2021/08/19 08:58:02;;;;;;;3.65;2.00;;;;;;;;;;5052547;28;20504;-74
2021/08/19 09:00:28;;;;;;;4.78;2.25;;;;;;;;;;5052652;28;20051;-75
2021/08/19 09:02:54;;;;;;;4.10;1.95;;;;;;;;;;5052258;28;20025;-74
2021/08/19 09:05:24;;;;;;;3.72;1.88;;;;;;;;;;5034351;28;20021;-74
2021/08/19 09:08:00;;;;;;;4.30;2.00;;;;;;;;;;5052325;28;20603;-74
2021/08/19 09:10:30;;;;;;;6.88;2.30;;;;;;;;;;5052138;28;20044;-74
2021/08/19 09:12:56;;;;;;;4.70;2.13;;;;;;;;;;5052158;28;20037;-74
2021/08/19 09:15:25;;;;;;;4.57;2.30;;;;;;;;;;5052272;28;20051;-74
2021/08/19 09:17:53;;;;;;;7.13;2.50;;;;;;;;;;5034417;28;20017;-73
2021/08/19 09:20:33;;;;;;;5.13;2.53;;;;;;;;;;5034328;28;20082;-74
2021/08/19 09:23:01;;;;;;;4.88;2.20;;;;;;;;;;5052179;28;20116;-74
2021/08/19 09:25:27;;;;;;;5.47;2.55;;;;;;;;;;5051865;28;20079;-74
2021/08/19 09:28:12;;;;;;;4.93;2.38;;;;;;;;;;5034071;28;20025;-74
2021/08/19 09:30:39;;;;;;;4.85;2.20;;;;;;;;;;5050803;28;20099;-74
2021/08/19 09:33:07;;;;;;;4.70;2.30;;;;;;;;;;5049584;28;20039;-74
2021/08/19 09:35:33;;;;;;;3.88;1.90;;;;;;;;;;5033908;28;20116;-74
2021/08/19 09:38:19;;;;;;;4.65;2.30;;;;;;;;;;5052002;28;20071;-74
2021/08/19 09:41:02;;;;;;;4.07;2.35;;;;;;;;;;5031210;28;20033;-74
2021/08/19 09:43:28;;;;;;;;;;;;;;;;;;5052901;28;20025;-74
2021/08/19 09:45:54;;;;;;;4.85;2.40;;;;;;;;;;5051969;28;19911;-74
2021/08/19 09:48:20;;;;;;;4.60;2.25;;;;;;;;;;5051758;28;20021;-74
2021/08/19 09:50:46;;;;;;;5.93;2.28;;;;;;;;;;5051890;28;20376;-74
2021/08/19 09:53:22;;;;;;;5.38;2.35;;;;;;;;;;5034078;28;20037;-73
2021/08/19 09:55:49;;;;;;;4.55;2.20;;;;;;;;;;5051556;28;20077;-74
2021/08/19 09:58:28;;;;;;;4.63;2.45;;;;;;;;;;5051869;28;20021;-74
2021/08/19 10:00:54;;;;;;;3.45;1.92;;;;;;;;;;5051692;28;20028;-74
2021/08/19 10:03:20;;;;;;;4.93;2.22;;;;;;;;;;5051852;28;20472;-74
2021/08/19 10:05:46;;;;;;;4.60;2.28;;;;;;;;;;5051622;28;20053;-73
2021/08/19 10:08:13;;;;;;;4.90;2.20;;;;;;;;;;5051800;28;20033;-74
2021/08/19 10:10:42;;;;;;;4.35;1.92;;;;;;;;;;5033810;28;20021;-74
2021/08/19 10:13:11;;;;;;;4.80;2.10;;;;;;;;;;5051688;28;20029;-74
2021/08/19 10:15:37;;;;;;;5.72;2.28;;;;;;;;;;5054291;28;20740;-74
2021/08/19 10:18:05;;;;;;;4.40;2.10;;;;;;;;;;5055623;28;20023;-74
2021/08/19 10:20:33;;;;;;;4.55;2.05;;;;;;;;;;5037580;28;20029;-73
2021/08/19 10:23:00;;;;;;;5.65;2.22;;;;;;;;;;5055615;28;20051;-74
2021/08/19 10:25:27;;;;;;;4.50;2.35;;;;;;;;;;5055258;28;20101;-74
2021/08/19 10:28:16;;;;;;;4.00;2.00;;;;;;;;;;5055373;28;20025;-74
2021/08/19 10:30:55;;;;;;;4.55;2.35;;;;;;;;;;5055270;28;20017;-74
2021/08/19 10:33:37;;;;;;;3.72;1.95;;;;;;;;;;5055286;28;20111;-74
2021/08/19 10:36:12;;;;;;;3.75;1.80;;;;;;;;;;5055313;28;20037;-74
2021/08/19 10:38:39;;;;;;;3.88;1.80;;;;;;;;;;5055288;28;20376;-74
2021/08/19 10:41:25;;;;;;;4.65;2.00;;;;;;;;;;5055031;28;20049;-74
2021/08/19 10:44:09;;;;;;;3.58;1.70;;;;;;;;;;5054814;28;20029;-74
2021/08/19 10:46:45;;;;;;;3.45;1.67;;;;;;;;;;5037144;28;20064;-74
2021/08/19 10:49:30;;;;;;;4.80;2.50;;;;;;;;;;5037045;28;20120;-74
2021/08/19 10:52:16;;;;;;;5.95;1.98;;;;;;;;;;5055213;28;20053;-74
2021/08/19 10:54:43;;;;;;;3.28;1.73;;;;;;;;;;5022987;28;20076;-74
2021/08/19 10:57:25;;;;;;;5.28;2.28;;;;;;;;;;5054830;28;20052;-74
2021/08/19 11:00:09;;;;;;;4.50;1.92;;;;;;;;;;5054651;28;20017;-74
2021/08/19 11:02:49;;;;;;;3.40;1.67;;;;;;;;;;5055021;28;20021;-74
2021/08/19 11:05:20;;;;;;;4.45;1.90;;;;;;;;;;5054682;28;20064;-74
2021/08/19 11:07:47;;;;;;;3.83;2.00;;;;;;;;;;5054780;28;20029;-74
2021/08/19 11:10:22;;;;;;;2.95;1.63;;;;;;;;;;5036784;28;20029;-74
2021/08/19 11:12:49;;;;;;;4.20;1.88;;;;;;;;;;5054349;28;20029;-74
2021/08/19 11:15:15;;;;;;;3.55;1.70;;;;;;;;;;5054330;28;20056;-74
2021/08/19 11:17:49;;;;;;;3.80;1.80;;;;;;;;;;5054489;28;20021;-74
2021/08/19 11:20:22;;;;;;;7.45;1.70;;;;;;;;;;5054418;28;20040;-74
2021/08/19 11:23:03;;;;;;;3.80;1.92;;;;;;;;;;5054494;28;20017;-74
2021/08/19 11:25:29;;;;;;;3.47;1.45;;;;;;;;;;5054287;28;20029;-74
2021/08/19 11:27:55;;;;;;;3.78;1.67;;;;;;;;;;5054520;28;20035;-74
2021/08/19 11:30:32;;;;;;;2.92;1.50;;;;;;;;;;5054482;28;20512;-74
2021/08/19 11:33:10;;;;;;;3.92;1.88;;;;;;;;;;5050801;28;20039;-74
2021/08/19 11:35:37;;;;;;;4.20;2.00;;;;;;;;;;5053833;28;20029;-74
2021/08/19 11:38:16;;;;;;;5.90;1.85;;;;;;;;;;5054031;28;20519;-74
2021/08/19 11:40:44;;;;;;;3.38;1.60;;;;;;;;;;5053929;28;20013;-75
2021/08/19 11:43:21;;;;;;;3.22;1.52;;;;;;;;;;5054040;28;20104;-74
2021/08/19 11:45:50;;;;;;;4.10;1.70;;;;;;;;;;5053810;28;20016;-73
2021/08/19 11:48:23;;;;;;;5.90;1.67;;;;;;;;;;5053941;28;20118;-73
2021/08/19 11:50:53;;;;;;;4.03;1.65;;;;;;;;;;5053669;28;20016;-73
2021/08/19 11:53:20;;;;;;;5.50;1.90;;;;;;;;;;5053762;28;20112;-73
2021/08/19 11:55:46;;;;;;;3.60;1.60;;;;;;;;;;5053905;28;20049;-73
2021/08/19 11:58:18;;;;;;;3.60;1.73;;;;;;;;;;5053826;28;20060;-73
2021/08/19 12:00:57;;;;;;;4.05;1.90;;;;;;;;;;5035871;28;20025;-73
2021/08/19 12:03:24;;;;;;;4.20;1.40;;;;;;;;;;5053495;28;20024;-73
2021/08/19 12:06:03;;;;;;;5.07;1.60;;;;;;;;;;5053376;28;20031;-73
2021/08/19 12:08:30;;;;;;;4.72;1.80;;;;;;;;;;5053106;28;20025;-73
2021/08/19 12:10:58;;;;;;;4.40;2.13;;;;;;;;;;5035225;28;20032;-73
2021/08/19 12:13:24;;;;;;;3.15;1.60;;;;;;;;;;5052963;28;20036;-73
2021/08/19 12:15:50;;;;;;;4.63;1.77;;;;;;;;;;5035188;28;20025;-73
2021/08/19 12:18:23;;;;;;;4.28;1.92;;;;;;;;;;5053536;28;20009;-73
2021/08/19 12:20:52;;;;;;;3.33;1.63;;;;;;;;;;5053363;28;20029;-73
2021/08/19 12:23:22;;;;;;;3.20;1.70;;;;;;;;;;5053365;28;20025;-73
2021/08/19 12:25:49;;;;;;;3.72;1.77;;;;;;;;;;5053409;28;20098;-74
2021/08/19 12:28:18;;;;;;;3.80;1.70;;;;;;;;;;5053165;28;20031;-73
2021/08/19 12:30:54;;;;;;;3.20;1.42;;;;;;;;;;5035122;28;20017;-73
2021/08/19 12:33:29;;;;;;;2.72;1.20;;;;;;;;;;5035020;28;20029;-73
2021/08/19 12:36:14;;;;;;;3.47;1.55;;;;;;;;;;5035221;28;20029;-73
2021/08/19 12:38:41;;;;;;;3.30;1.70;;;;;;;;;;5052174;28;20086;-73
2021/08/19 12:41:25;;;;;;;4.95;1.70;;;;;;;;;;5052749;28;20444;-73
2021/08/19 12:44:05;;;;;;;3.53;1.52;;;;;;;;;;5034665;28;20021;-73
2021/08/19 12:46:38;;;;;;;3.30;1.40;;;;;;;;;;5052842;28;20020;-73
2021/08/19 12:49:22;;;;;;;3.17;1.40;;;;;;;;;;5052648;28;20032;-73
2021/08/19 12:51:48;;;;;;;2.58;1.40;;;;;;;;;;5052786;28;20096;-73
2021/08/19 12:54:22;;;;;;;3.30;1.42;;;;;;;;;;5052311;28;20036;-73
2021/08/19 12:56:59;;;;;;;4.70;1.80;;;;;;;;;;5052696;28;20515;-73
2021/08/19 12:59:25;;;;;;;3.88;1.67;;;;;;;;;;5052440;28;20526;-73
2021/08/19 13:01:51;;;;;;;3.85;1.77;;;;;;;;;;5034592;28;20061;-73
2021/08/19 13:04:17;;;;;;;5.15;1.73;;;;;;;;;;5034286;28;20049;-73
2021/08/19 13:06:43;;;;;;;2.85;1.38;;;;;;;;;;5052378;28;20100;-73
2021/08/19 13:09:10;;;;;;;3.80;1.67;;;;;;;;;;5052444;28;20511;-73
2021/08/19 13:11:36;;;;;;;3.88;1.50;;;;;;;;;;5034619;28;20029;-73
2021/08/19 13:14:02;;;;;;;3.22;1.40;;;;;;;;;;5034349;28;20036;-73
2021/08/19 13:16:28;;;;;;;3.83;1.63;;;;;;;;;;5052490;28;20052;-73
2021/08/19 13:18:54;;;;;;;3.78;1.50;;;;;;;;;;5052353;28;20053;-73
2021/08/19 13:21:20;;;;;;;4.05;1.52;;;;;;;;;;5034335;28;20021;-73
2021/08/19 13:23:46;;;;;;;3.42;1.70;;;;;;;;;;5052324;28;20051;-73
2021/08/19 13:26:13;;;;;;;2.90;1.60;;;;;;;;;;5052248;28;20127;-73
2021/08/19 13:28:39;;;;;;;4.03;1.83;;;;;;;;;;5052034;28;20044;-73
2021/08/19 13:31:05;;;;;;;4.55;1.90;;;;;;;;;;5052154;28;20032;-73
2021/08/19 13:33:31;;;;;;;3.80;1.50;;;;;;;;;;5048517;28;20029;-73
2021/08/19 13:35:57;;;;;;;3.20;1.60;;;;;;;;;;5052018;28;20029;-73
2021/08/19 13:38:23;;;;;;;5.97;1.83;;;;;;;;;;5052185;28;20490;-73
2021/08/19 13:40:49;;;;;;;5.55;1.80;;;;;;;;;;5052189;28;20076;-73
2021/08/19 13:43:15;;;;;;;3.60;1.48;;;;;;;;;;5052086;28;20025;-73
2021/08/19 13:45:41;;;;;;;5.93;1.70;;;;;;;;;;5051891;28;20025;-73
2021/08/19 13:48:08;;;;;;;3.70;1.80;;;;;;;;;;5034120;28;20029;-73
2021/08/19 13:50:34;;;;;;;5.25;1.65;;;;;;;;;;5036533;28;20013;-74
2021/08/19 13:53:00;;;;;;;3.50;1.80;;;;;;;;;;5037968;28;20025;-73
2021/08/19 13:55:26;;;;;;;2.92;1.30;;;;;;;;;;5056067;28;20049;-74
2021/08/19 13:57:52;;;;;;;4.88;1.65;;;;;;;;;;5056026;28;20028;-73
2021/08/19 14:00:18;;;;;;;3.25;1.63;;;;;;;;;;5055780;28;20041;-73
2021/08/19 14:02:47;;;;;;;4.43;1.73;;;;;;;;;;5055898;28;20013;-72
2021/08/19 14:05:14;;;;;;;3.30;1.63;;;;;;;;;;5037559;28;20116;-74
2021/08/19 14:07:40;;;;;;;4.43;1.70;;;;;;;;;;5037956;28;20024;-73
2021/08/19 14:10:06;;;;;;;3.65;1.88;;;;;;;;;;5055718;28;20021;-73
2021/08/19 14:12:32;;;;;;;3.63;1.55;;;;;;;;;;5037463;28;20380;-73
2021/08/19 14:14:58;;;;;;;4.10;1.67;;;;;;;;;;5055395;28;20491;-74
2021/08/19 14:17:24;;;;;;;3.67;1.90;;;;;;;;;;5055467;28;20036;-73
2021/08/19 14:19:50;;;;;;;2.30;1.20;;;;;;;;;;5055489;28;20032;-73
2021/08/19 14:22:16;;;;;;;3.65;1.65;;;;;;;;;;5055334;28;20025;-73
2021/08/19 14:24:42;;;;;;;3.50;1.50;;;;;;;;;;5037285;28;20059;-73
2021/08/19 14:27:08;;;;;;;3.33;1.35;;;;;;;;;;5037478;28;20044;-73
2021/08/19 14:29:34;;;;;;;5.40;1.65;;;;;;;;;;5037608;28;20021;-73
2021/08/19 14:32:01;;;;;;;4.20;1.60;;;;;;;;;;5037503;28;20021;-73
2021/08/19 14:34:27;;;;;;;3.88;1.50;;;;;;;;;;5055179;28;20051;-73
2021/08/19 14:36:53;;;;;;;4.15;1.70;;;;;;;;;;5037039;28;20017;-73
2021/08/19 14:39:19;;;;;;;4.00;1.60;;;;;;;;;;5036779;28;20111;-73
2021/08/19 14:41:45;;;;;;;3.08;1.45;;;;;;;;;;5054843;28;20025;-73
2021/08/19 14:44:11;;;;;;;3.78;1.70;;;;;;;;;;5037309;28;20124;-72
2021/08/19 14:46:42;;;;;;;3.22;1.50;;;;;;;;;;5055115;28;20028;-73